sensor_id;sensor_type;location;lat;lon;timestamp;pressure;altitude;pressure_sealevel;temperature;humidity
78123;BME280;67376;44.802;10.332;2023-04-15T00:01:54;99822.28;;;18.62;41.13
78123;BME280;67376;44.802;10.332;2023-04-15T00:04:19;99829.56;;;18.61;40.91
78123;BME280;67376;44.802;10.332;2023-04-15T00:06:51;99826.03;;;18.61;41.18
78123;BME280;67376;44.802;10.332;2023-04-15T00:09:18;99832.25;;;18.61;41.42
78123;BME280;67376;44.802;10.332;2023-04-15T00:11:44;99818.97;;;18.60;41.67
78123;BME280;67376;44.802;10.332;2023-04-15T00:14:11;99819.81;;;18.60;41.38
78123;BME280;67376;44.802;10.332;2023-04-15T00:16:36;99810.28;;;18.58;40.77
78123;BME280;67376;44.802;10.332;2023-04-15T00:19:02;99818.75;;;18.61;41.41
78123;BME280;67376;44.802;10.332;2023-04-15T00:21:27;99821.44;;;18.61;41.45
78123;BME280;67376;44.802;10.332;2023-04-15T00:23:53;99816.03;;;18.61;41.13
78123;BME280;67376;44.802;10.332;2023-04-15T00:26:19;99820.63;;;18.61;41.85
78123;BME280;67376;44.802;10.332;2023-04-15T00:28:45;99809.00;;;18.60;41.55
78123;BME280;67376;44.802;10.332;2023-04-15T00:31:11;99815.22;;;18.61;41.96
78123;BME280;67376;44.802;10.332;2023-04-15T00:33:36;99805.44;;;18.60;41.17
78123;BME280;67376;44.802;10.332;2023-04-15T00:36:02;99814.16;;;18.62;41.29
78123;BME280;67376;44.802;10.332;2023-04-15T00:38:28;99812.53;;;18.61;41.29
78123;BME280;67376;44.802;10.332;2023-04-15T00:40:54;99803.81;;;18.59;41.27
78123;BME280;67376;44.802;10.332;2023-04-15T00:43:20;99801.72;;;18.61;40.88
78123;BME280;67376;44.802;10.332;2023-04-15T00:45:46;99802.75;;;18.60;41.61
78123;BME280;67376;44.802;10.332;2023-04-15T00:48:11;99803.22;;;18.57;41.47
78123;BME280;67376;44.802;10.332;2023-04-15T00:50:37;99806.28;;;18.60;41.14
78123;BME280;67376;44.802;10.332;2023-04-15T00:53:03;99807.94;;;18.61;41.08
78123;BME280;67376;44.802;10.332;2023-04-15T00:55:29;99799.22;;;18.59;41.60
78123;BME280;67376;44.802;10.332;2023-04-15T00:57:55;99793.25;;;18.57;41.42
78123;BME280;67376;44.802;10.332;2023-04-15T01:00:21;99797.59;;;18.58;41.10
78123;BME280;67376;44.802;10.332;2023-04-15T01:02:47;99790.53;;;18.57;41.59
78123;BME280;67376;44.802;10.332;2023-04-15T01:05:13;99786.78;;;18.58;41.45
78123;BME280;67376;44.802;10.332;2023-04-15T01:07:41;99790.28;;;18.59;41.19
78123;BME280;67376;44.802;10.332;2023-04-15T01:10:07;99800.28;;;18.58;41.70
78123;BME280;67376;44.802;10.332;2023-04-15T01:12:33;99796.53;;;18.59;41.69
78123;BME280;67376;44.802;10.332;2023-04-15T01:14:58;99793.25;;;18.57;41.50
78123;BME280;67376;44.802;10.332;2023-04-15T01:17:24;99796.75;;;18.58;41.12
78123;BME280;67376;44.802;10.332;2023-04-15T01:19:50;99802.75;;;18.60;41.19
78123;BME280;67376;44.802;10.332;2023-04-15T01:22:16;99802.16;;;18.58;41.75
78123;BME280;67376;44.802;10.332;2023-04-15T01:24:50;99799.47;;;18.58;41.73
78123;BME280;67376;44.802;10.332;2023-04-15T01:27:18;99795.13;;;18.57;41.60
78123;BME280;67376;44.802;10.332;2023-04-15T01:29:44;99798.66;;;18.57;41.08
78123;BME280;67376;44.802;10.332;2023-04-15T01:32:10;99807.56;;;18.58;42.14
78123;BME280;67376;44.802;10.332;2023-04-15T01:34:36;99802.16;;;18.58;41.11
78123;BME280;67376;44.802;10.332;2023-04-15T01:37:01;99806.75;;;18.57;41.58
78123;BME280;67376;44.802;10.332;2023-04-15T01:39:26;99801.59;;;18.56;41.66
78123;BME280;67376;44.802;10.332;2023-04-15T01:41:52;99803.00;;;18.58;41.73
78123;BME280;67376;44.802;10.332;2023-04-15T01:44:17;99794.88;;;18.58;41.00
78123;BME280;67376;44.802;10.332;2023-04-15T01:46:43;99793.50;;;18.56;41.70
78123;BME280;67376;44.802;10.332;2023-04-15T01:49:08;99799.72;;;18.56;41.74
78123;BME280;67376;44.802;10.332;2023-04-15T01:51:33;99809.47;;;18.57;41.26
78123;BME280;67376;44.802;10.332;2023-04-15T01:53:59;99797.00;;;18.56;41.05
78123;BME280;67376;44.802;10.332;2023-04-15T01:56:24;99794.31;;;18.56;41.01
78123;BME280;67376;44.802;10.332;2023-04-15T01:58:50;99797.00;;;18.56;40.96
78123;BME280;67376;44.802;10.332;2023-04-15T02:01:16;99792.41;;;18.57;41.29
78123;BME280;67376;44.802;10.332;2023-04-15T02:03:44;99795.13;;;18.57;42.09
78123;BME280;67376;44.802;10.332;2023-04-15T02:06:09;99791.59;;;18.56;41.74
78123;BME280;67376;44.802;10.332;2023-04-15T02:08:35;99794.31;;;18.56;42.17
78123;BME280;67376;44.802;10.332;2023-04-15T02:11:00;99780.47;;;18.53;42.19
78123;BME280;67376;44.802;10.332;2023-04-15T02:13:26;99796.19;;;18.56;41.48
78123;BME280;67376;44.802;10.332;2023-04-15T02:15:51;99789.16;;;18.55;41.40
78123;BME280;67376;44.802;10.332;2023-04-15T02:18:17;99798.06;;;18.55;41.97
78123;BME280;67376;44.802;10.332;2023-04-15T02:20:42;99789.16;;;18.55;41.87
78123;BME280;67376;44.802;10.332;2023-04-15T02:23:08;99785.63;;;18.54;41.67
78123;BME280;67376;44.802;10.332;2023-04-15T02:25:33;99787.25;;;18.55;41.78
78123;BME280;67376;44.802;10.332;2023-04-15T02:27:59;99790.22;;;18.54;41.40
78123;BME280;67376;44.802;10.332;2023-04-15T02:30:24;99791.84;;;18.55;41.39
78123;BME280;67376;44.802;10.332;2023-04-15T02:32:50;99789.16;;;18.55;41.78
78123;BME280;67376;44.802;10.332;2023-04-15T02:35:15;99797.25;;;18.55;41.91
78123;BME280;67376;44.802;10.332;2023-04-15T02:37:44;99797.25;;;18.55;41.30
78123;BME280;67376;44.802;10.332;2023-04-15T02:40:10;99795.63;;;18.54;41.00
78123;BME280;67376;44.802;10.332;2023-04-15T02:42:40;99799.13;;;18.54;41.21
78123;BME280;67376;44.802;10.332;2023-04-15T02:45:06;99798.06;;;18.55;41.63
78123;BME280;67376;44.802;10.332;2023-04-15T02:47:32;99803.72;;;18.54;41.42
78123;BME280;67376;44.802;10.332;2023-04-15T02:49:58;99793.72;;;18.54;41.41
78123;BME280;67376;44.802;10.332;2023-04-15T02:52:24;99801.03;;;18.54;42.13
78123;BME280;67376;44.802;10.332;2023-04-15T02:54:50;99801.03;;;18.54;41.18
78123;BME280;67376;44.802;10.332;2023-04-15T02:57:16;99798.56;;;18.52;41.82
78123;BME280;67376;44.802;10.332;2023-04-15T02:59:41;99796.69;;;18.53;41.02
78123;BME280;67376;44.802;10.332;2023-04-15T03:02:06;99803.72;;;18.54;41.85
78123;BME280;67376;44.802;10.332;2023-04-15T03:04:32;99803.72;;;18.54;41.54
78123;BME280;67376;44.802;10.332;2023-04-15T03:06:58;99803.97;;;18.52;41.52
78123;BME280;67376;44.802;10.332;2023-04-15T03:09:24;99812.91;;;18.53;41.99
78123;BME280;67376;44.802;10.332;2023-04-15T03:11:50;99812.09;;;18.52;41.29
78123;BME280;67376;44.802;10.332;2023-04-15T03:14:17;99815.59;;;18.53;41.59
78123;BME280;67376;44.802;10.332;2023-04-15T03:16:42;99815.59;;;18.53;41.86
78123;BME280;67376;44.802;10.332;2023-04-15T03:19:08;99817.50;;;18.52;41.72
78123;BME280;67376;44.802;10.332;2023-04-15T03:21:33;99832.63;;;18.53;41.78
78123;BME280;67376;44.802;10.332;2023-04-15T03:23:58;99828.53;;;18.51;41.49
78123;BME280;67376;44.802;10.332;2023-04-15T03:26:25;99834.78;;;18.51;41.57
78123;BME280;67376;44.802;10.332;2023-04-15T03:28:51;99842.06;;;18.51;42.12
78123;BME280;67376;44.802;10.332;2023-04-15T03:31:16;99839.13;;;18.52;41.72
78123;BME280;67376;44.802;10.332;2023-04-15T03:33:42;99842.06;;;18.51;42.20
78123;BME280;67376;44.802;10.332;2023-04-15T03:36:07;99841.00;;;18.52;42.14
78123;BME280;67376;44.802;10.332;2023-04-15T03:38:32;99846.41;;;18.52;41.30
78123;BME280;67376;44.802;10.332;2023-04-15T03:40:58;99839.34;;;18.51;41.44
78123;BME280;67376;44.802;10.332;2023-04-15T03:43:23;99839.13;;;18.52;41.39
78123;BME280;67376;44.802;10.332;2023-04-15T03:45:48;99833.94;;;18.51;41.58
78123;BME280;67376;44.802;10.332;2023-04-15T03:48:14;99837.47;;;18.51;41.49
78123;BME280;67376;44.802;10.332;2023-04-15T03:50:39;99825.84;;;18.51;41.21
78123;BME280;67376;44.802;10.332;2023-04-15T03:53:04;99832.59;;;18.48;41.27
78123;BME280;67376;44.802;10.332;2023-04-15T03:55:30;99830.44;;;18.50;41.86
78123;BME280;67376;44.802;10.332;2023-04-15T03:57:55;99830.44;;;18.50;42.06
78123;BME280;67376;44.802;10.332;2023-04-15T04:00:21;99828.78;;;18.49;41.59
78123;BME280;67376;44.802;10.332;2023-04-15T04:02:46;99833.13;;;18.50;41.89
78123;BME280;67376;44.802;10.332;2023-04-15T04:05:12;99830.69;;;18.48;42.06
78123;BME280;67376;44.802;10.332;2023-04-15T04:07:37;99833.38;;;18.48;41.99
78123;BME280;67376;44.802;10.332;2023-04-15T04:10:03;99831.75;;;18.47;41.65
78123;BME280;67376;44.802;10.332;2023-04-15T04:12:28;99838.00;;;18.48;42.00
78123;BME280;67376;44.802;10.332;2023-04-15T04:14:54;99846.09;;;18.48;41.38
78123;BME280;67376;44.802;10.332;2023-04-15T04:17:19;99861.50;;;18.47;41.54
78123;BME280;67376;44.802;10.332;2023-04-15T04:19:45;99859.84;;;18.46;41.38
78123;BME280;67376;44.802;10.332;2023-04-15T04:22:10;99866.63;;;18.49;41.81
78123;BME280;67376;44.802;10.332;2023-04-15T04:24:36;99868.50;;;18.48;41.35
78123;BME280;67376;44.802;10.332;2023-04-15T04:27:01;99872.03;;;18.49;41.83
78123;BME280;67376;44.802;10.332;2023-04-15T04:29:27;99864.19;;;18.47;41.41
78123;BME280;67376;44.802;10.332;2023-04-15T04:31:52;99870.09;;;18.44;41.71
78123;BME280;67376;44.802;10.332;2023-04-15T04:34:17;99869.59;;;18.47;41.71
78123;BME280;67376;44.802;10.332;2023-04-15T04:36:43;99874.19;;;18.47;41.33
78123;BME280;67376;44.802;10.332;2023-04-15T04:39:08;99876.06;;;18.46;41.01
78123;BME280;67376;44.802;10.332;2023-04-15T04:41:34;99876.06;;;18.46;41.38
78123;BME280;67376;44.802;10.332;2023-04-15T04:43:59;99880.91;;;18.44;41.80
78123;BME280;67376;44.802;10.332;2023-04-15T04:46:24;99881.16;;;18.43;41.14
78123;BME280;67376;44.802;10.332;2023-04-15T04:48:50;99879.50;;;18.42;41.47
78123;BME280;67376;44.802;10.332;2023-04-15T04:51:15;99882.47;;;18.40;41.52
78123;BME280;67376;44.802;10.332;2023-04-15T04:53:41;99884.91;;;18.42;40.95
78123;BME280;67376;44.802;10.332;2023-04-15T04:56:07;99880.81;;;18.39;41.22
78123;BME280;67376;44.802;10.332;2023-04-15T04:58:32;99880.00;;;18.39;41.18
78123;BME280;67376;44.802;10.332;2023-04-15T05:00:58;99892.44;;;18.40;40.85
78123;BME280;67376;44.802;10.332;2023-04-15T05:03:23;99883.44;;;18.34;41.09
78123;BME280;67376;44.802;10.332;2023-04-15T05:05:49;99890.81;;;18.39;40.82
78123;BME280;67376;44.802;10.332;2023-04-15T05:08:15;99896.44;;;18.37;41.48
78123;BME280;67376;44.802;10.332;2023-04-15T05:10:40;99898.09;;;18.38;41.20
78123;BME280;67376;44.802;10.332;2023-04-15T05:13:06;99903.97;;;18.35;40.77
78123;BME280;67376;44.802;10.332;2023-04-15T05:15:31;99914.78;;;18.35;40.67
78123;BME280;67376;44.802;10.332;2023-04-15T05:17:59;99917.50;;;18.35;40.96
78123;BME280;67376;44.802;10.332;2023-04-15T05:20:25;99931.81;;;18.36;40.45
78123;BME280;67376;44.802;10.332;2023-04-15T05:22:50;99920.19;;;18.35;40.83
78123;BME280;67376;44.802;10.332;2023-04-15T05:25:15;99923.97;;;18.34;41.08
78123;BME280;67376;44.802;10.332;2023-04-15T05:27:41;99928.31;;;18.35;40.70
78123;BME280;67376;44.802;10.332;2023-04-15T05:30:07;99935.59;;;18.35;40.36
78123;BME280;67376;44.802;10.332;2023-04-15T05:32:33;99938.53;;;18.33;40.44
78123;BME280;67376;44.802;10.332;2023-04-15T05:34:58;99943.94;;;18.33;40.19
78123;BME280;67376;44.802;10.332;2023-04-15T05:37:23;99943.34;;;18.31;40.37
78123;BME280;67376;44.802;10.332;2023-04-15T05:39:49;99947.13;;;18.30;40.37
78123;BME280;67376;44.802;10.332;2023-04-15T05:42:15;99946.53;;;18.28;40.36
78123;BME280;67376;44.802;10.332;2023-04-15T05:44:41;99950.06;;;18.29;39.78
78123;BME280;67376;44.802;10.332;2023-04-15T05:47:06;99948.19;;;18.29;39.30
78123;BME280;67376;44.802;10.332;2023-04-15T05:49:32;99943.50;;;18.25;39.97
78123;BME280;67376;44.802;10.332;2023-04-15T05:51:58;99949.81;;;18.30;39.61
78123;BME280;67376;44.802;10.332;2023-04-15T05:54:23;99948.75;;;18.31;39.58
78123;BME280;67376;44.802;10.332;2023-04-15T05:56:49;99948.75;;;18.31;40.10
78123;BME280;67376;44.802;10.332;2023-04-15T05:59:14;99956.63;;;18.33;39.83
78123;BME280;67376;44.802;10.332;2023-04-15T06:01:39;99954.75;;;18.33;39.38
78123;BME280;67376;44.802;10.332;2023-04-15T06:04:05;99960.16;;;18.33;40.29
78123;BME280;67376;44.802;10.332;2023-04-15T06:06:30;99954.75;;;18.33;39.96
78123;BME280;67376;44.802;10.332;2023-04-15T06:08:56;99955.56;;;18.34;39.28
78123;BME280;67376;44.802;10.332;2023-04-15T06:11:22;99949.91;;;18.35;39.24
78123;BME280;67376;44.802;10.332;2023-04-15T06:13:48;99952.63;;;18.35;39.24
78123;BME280;67376;44.802;10.332;2023-04-15T06:16:13;99955.56;;;18.34;39.81
78123;BME280;67376;44.802;10.332;2023-04-15T06:18:38;99955.81;;;18.32;39.69
78123;BME280;67376;44.802;10.332;2023-04-15T06:21:04;99954.41;;;18.30;39.36
78123;BME280;67376;44.802;10.332;2023-04-15T06:23:30;99948.91;;;18.25;39.42
78123;BME280;67376;44.802;10.332;2023-04-15T06:25:55;99952.19;;;18.27;40.08
78123;BME280;67376;44.802;10.332;2023-04-15T06:28:21;99951.94;;;18.28;39.51
78123;BME280;67376;44.802;10.332;2023-04-15T06:30:46;99957.59;;;18.27;39.87
78123;BME280;67376;44.802;10.332;2023-04-15T06:33:11;99953.81;;;18.28;40.00
78123;BME280;67376;44.802;10.332;2023-04-15T06:35:37;99959.22;;;18.28;40.35
78123;BME280;67376;44.802;10.332;2023-04-15T06:38:03;99959.00;;;18.29;40.40
78123;BME280;67376;44.802;10.332;2023-04-15T06:40:28;99957.94;;;18.30;40.09
78123;BME280;67376;44.802;10.332;2023-04-15T06:42:54;99947.84;;;18.26;39.62
78123;BME280;67376;44.802;10.332;2023-04-15T06:45:19;99948.09;;;18.24;39.81
78123;BME280;67376;44.802;10.332;2023-04-15T06:47:45;99951.13;;;18.28;39.95
78123;BME280;67376;44.802;10.332;2023-04-15T06:50:10;99955.47;;;18.29;39.56
78123;BME280;67376;44.802;10.332;2023-04-15T06:52:36;99961.44;;;18.31;40.25
78123;BME280;67376;44.802;10.332;2023-04-15T06:55:02;99959.91;;;18.35;39.81
78123;BME280;67376;44.802;10.332;2023-04-15T06:57:27;99953.44;;;18.36;39.18
78123;BME280;67376;44.802;10.332;2023-04-15T06:59:53;99947.56;;;18.39;39.37
78123;BME280;67376;44.802;10.332;2023-04-15T07:02:19;99959.78;;;18.41;39.11
78123;BME280;67376;44.802;10.332;2023-04-15T07:04:44;99962.81;;;18.45;39.21
78123;BME280;67376;44.802;10.332;2023-04-15T07:07:10;99962.56;;;18.46;39.45
78123;BME280;67376;44.802;10.332;2023-04-15T07:09:36;99965.81;;;18.48;38.83
78123;BME280;67376;44.802;10.332;2023-04-15T07:12:01;99964.44;;;18.46;39.21
78123;BME280;67376;44.802;10.332;2023-04-15T07:14:27;99963.63;;;18.45;39.24
78123;BME280;67376;44.802;10.332;2023-04-15T07:16:53;99978.78;;;18.46;39.00
78123;BME280;67376;44.802;10.332;2023-04-15T07:19:18;99971.50;;;18.47;38.57
78123;BME280;67376;44.802;10.332;2023-04-15T07:21:44;99979.34;;;18.48;38.81
78123;BME280;67376;44.802;10.332;2023-04-15T07:24:09;99970.44;;;18.48;38.43
78123;BME280;67376;44.802;10.332;2023-04-15T07:26:35;99972.31;;;18.47;38.94
78123;BME280;67376;44.802;10.332;2023-04-15T07:29:00;99967.47;;;18.49;38.45
78123;BME280;67376;44.802;10.332;2023-04-15T07:31:25;99966.41;;;18.51;38.42
78123;BME280;67376;44.802;10.332;2023-04-15T07:33:51;99960.69;;;18.47;37.91
78123;BME280;67376;44.802;10.332;2023-04-15T07:36:17;99975.09;;;18.53;38.69
78123;BME280;67376;44.802;10.332;2023-04-15T07:38:43;99972.31;;;18.47;38.36
78123;BME280;67376;44.802;10.332;2023-04-15T07:41:08;99975.44;;;18.28;36.03
78123;BME280;67376;44.802;10.332;2023-04-15T07:43:34;99969.16;;;18.10;35.58
78123;BME280;67376;44.802;10.332;2023-04-15T07:46:00;99970.47;;;17.96;35.25
78123;BME280;67376;44.802;10.332;2023-04-15T07:48:25;99977.91;;;17.89;34.88
78123;BME280;67376;44.802;10.332;2023-04-15T07:50:51;99973.06;;;17.91;34.75
78123;BME280;67376;44.802;10.332;2023-04-15T07:53:17;99974.47;;;17.94;34.75
78123;BME280;67376;44.802;10.332;2023-04-15T07:55:42;99973.75;;;17.98;34.80
78123;BME280;67376;44.802;10.332;2023-04-15T07:58:07;99969.41;;;17.97;34.35
78123;BME280;67376;44.802;10.332;2023-04-15T08:00:33;99961.22;;;17.92;34.41
78123;BME280;67376;44.802;10.332;2023-04-15T08:02:58;99962.19;;;17.86;34.00
78123;BME280;67376;44.802;10.332;2023-04-15T08:05:24;99952.44;;;17.85;34.15
78123;BME280;67376;44.802;10.332;2023-04-15T08:07:50;99951.28;;;17.81;34.46
78123;BME280;67376;44.802;10.332;2023-04-15T08:10:15;99962.19;;;17.86;34.43
78123;BME280;67376;44.802;10.332;2023-04-15T08:12:41;99960.31;;;17.87;34.30
78123;BME280;67376;44.802;10.332;2023-04-15T08:15:07;99959.50;;;17.86;33.93
78123;BME280;67376;44.802;10.332;2023-04-15T08:17:33;99952.69;;;17.84;34.22
78123;BME280;67376;44.802;10.332;2023-04-15T08:19:58;99967.00;;;17.84;34.36
78123;BME280;67376;44.802;10.332;2023-04-15T08:22:24;99959.56;;;17.91;34.92
78123;BME280;67376;44.802;10.332;2023-04-15T08:24:49;99964.59;;;17.99;35.10
78123;BME280;67376;44.802;10.332;2023-04-15T08:27:15;99965.03;;;18.08;35.62
78123;BME280;67376;44.802;10.332;2023-04-15T08:29:41;99967.50;;;18.09;35.24
78123;BME280;67376;44.802;10.332;2023-04-15T08:32:07;99965.88;;;18.08;35.29
78123;BME280;67376;44.802;10.332;2023-04-15T08:34:33;99959.97;;;18.11;35.36
78123;BME280;67376;44.802;10.332;2023-04-15T08:36:59;99966.78;;;18.14;35.40
78123;BME280;67376;44.802;10.332;2023-04-15T08:39:25;99959.84;;;18.18;35.77
78123;BME280;67376;44.802;10.332;2023-04-15T08:41:56;99964.66;;;18.16;35.11
78123;BME280;67376;44.802;10.332;2023-04-15T08:44:25;99960.69;;;18.07;35.13
78123;BME280;67376;44.802;10.332;2023-04-15T08:46:52;99949.75;;;18.13;35.69
78123;BME280;67376;44.802;10.332;2023-04-15T08:49:20;99960.09;;;18.17;35.73
78123;BME280;67376;44.802;10.332;2023-04-15T08:51:47;99959.28;;;18.16;35.48
78123;BME280;67376;44.802;10.332;2023-04-15T08:54:13;99949.28;;;18.17;34.81
78123;BME280;67376;44.802;10.332;2023-04-15T08:56:39;99956.56;;;18.16;34.91
78123;BME280;67376;44.802;10.332;2023-04-15T08:59:05;99960.69;;;18.07;34.63
78123;BME280;67376;44.802;10.332;2023-04-15T09:01:31;99948.13;;;18.12;35.17
78123;BME280;67376;44.802;10.332;2023-04-15T09:03:58;99945.28;;;18.19;35.00
78123;BME280;67376;44.802;10.332;2023-04-15T09:06:24;99951.84;;;18.23;35.88
78123;BME280;67376;44.802;10.332;2023-04-15T09:08:50;99948.66;;;18.26;36.07
78123;BME280;67376;44.802;10.332;2023-04-15T09:11:16;99949.69;;;18.37;34.19
78123;BME280;67376;44.802;10.332;2023-04-15T09:13:42;99952.66;;;18.24;34.59
78123;BME280;67376;44.802;10.332;2023-04-15T09:16:07;99949.97;;;18.24;35.07
78123;BME280;67376;44.802;10.332;2023-04-15T09:18:34;99944.66;;;18.29;35.17
78123;BME280;67376;44.802;10.332;2023-04-15T09:21:08;99948.28;;;18.34;35.66
78123;BME280;67376;44.802;10.332;2023-04-15T09:23:36;99947.06;;;18.42;34.89
78123;BME280;67376;44.802;10.332;2023-04-15T09:26:02;99938.47;;;18.45;34.95
78123;BME280;67376;44.802;10.332;2023-04-15T09:28:28;99939.38;;;18.51;34.90
78123;BME280;67376;44.802;10.332;2023-04-15T09:30:58;99941.00;;;18.52;35.13
78123;BME280;67376;44.802;10.332;2023-04-15T09:33:25;99942.41;;;18.54;34.94
78123;BME280;67376;44.802;10.332;2023-04-15T09:36:02;99934.06;;;18.56;34.88
78123;BME280;67376;44.802;10.332;2023-04-15T09:38:29;99936.50;;;18.57;35.61
78123;BME280;67376;44.802;10.332;2023-04-15T09:40:56;99928.97;;;18.59;35.36
78123;BME280;67376;44.802;10.332;2023-04-15T09:43:22;99925.00;;;18.62;35.36
78123;BME280;67376;44.802;10.332;2023-04-15T09:45:52;99926.63;;;18.63;35.65
78123;BME280;67376;44.802;10.332;2023-04-15T09:48:23;99923.38;;;18.61;35.02
78123;BME280;67376;44.802;10.332;2023-04-15T09:50:51;99917.34;;;18.59;35.43
78123;BME280;67376;44.802;10.332;2023-04-15T09:53:23;99920.06;;;18.59;35.54
78123;BME280;67376;44.802;10.332;2023-04-15T09:58:23;99919.34;;;18.63;36.14
78123;BME280;67376;44.802;10.332;2023-04-15T10:00:50;99915.25;;;18.61;35.39
78123;BME280;67376;44.802;10.332;2023-04-15T10:03:31;99916.91;;;18.62;35.25
78123;BME280;67376;44.802;10.332;2023-04-15T10:05:59;99911.25;;;18.63;36.23
78123;BME280;67376;44.802;10.332;2023-04-15T10:08:29;99901.72;;;18.61;35.85
78123;BME280;67376;44.802;10.332;2023-04-15T10:10:55;99902.31;;;18.63;35.44
78123;BME280;67376;44.802;10.332;2023-04-15T10:13:23;99902.88;;;18.65;35.66
78123;BME280;67376;44.802;10.332;2023-04-15T10:15:57;99896.66;;;18.64;35.77
78123;BME280;67376;44.802;10.332;2023-04-15T10:18:25;99899.38;;;18.64;35.74
78123;BME280;67376;44.802;10.332;2023-04-15T10:20:52;99891.25;;;18.64;35.90
78123;BME280;67376;44.802;10.332;2023-04-15T10:23:18;99893.13;;;18.64;35.57
78123;BME280;67376;44.802;10.332;2023-04-15T10:25:51;99895.59;;;18.65;35.92
78123;BME280;67376;44.802;10.332;2023-04-15T10:28:18;99893.13;;;18.64;35.66
78123;BME280;67376;44.802;10.332;2023-04-15T10:30:44;99877.72;;;18.64;36.41
78123;BME280;67376;44.802;10.332;2023-04-15T10:33:12;99887.25;;;18.67;35.92
78123;BME280;67376;44.802;10.332;2023-04-15T10:35:39;99886.19;;;18.68;35.95
78123;BME280;67376;44.802;10.332;2023-04-15T10:49:12;99877.25;;;18.67;36.11
78123;BME280;67376;44.802;10.332;2023-04-15T10:51:42;99881.00;;;18.66;36.80
78123;BME280;67376;44.802;10.332;2023-04-15T10:54:16;99878.31;;;18.66;36.51
78123;BME280;67376;44.802;10.332;2023-04-15T10:59:29;99865.13;;;18.70;36.85
78123;BME280;67376;44.802;10.332;2023-04-15T11:01:59;99872.91;;;18.66;37.50
78123;BME280;67376;44.802;10.332;2023-04-15T11:04:54;99873.47;;;18.68;37.82
78123;BME280;67376;44.802;10.332;2023-04-15T11:12:38;99866.44;;;18.67;37.78
78123;BME280;67376;44.802;10.332;2023-04-15T11:17:57;99853.72;;;18.68;39.10
78123;BME280;67376;44.802;10.332;2023-04-15T11:20:23;99858.06;;;18.69;39.02
78123;BME280;67376;44.802;10.332;2023-04-15T11:22:50;99852.91;;;18.67;38.80
78123;BME280;67376;44.802;10.332;2023-04-15T11:25:27;99853.72;;;18.68;39.64
78123;BME280;67376;44.802;10.332;2023-04-15T11:27:53;99844.56;;;18.69;40.06
78123;BME280;67376;44.802;10.332;2023-04-15T11:30:21;99847.00;;;18.70;39.46
78123;BME280;67376;44.802;10.332;2023-04-15T11:32:48;99849.97;;;18.69;39.52
78123;BME280;67376;44.802;10.332;2023-04-15T11:35:13;99839.72;;;18.71;39.67
78123;BME280;67376;44.802;10.332;2023-04-15T11:37:40;99844.06;;;18.72;39.25
78123;BME280;67376;44.802;10.332;2023-04-15T11:40:06;99847.59;;;18.72;39.98
78123;BME280;67376;44.802;10.332;2023-04-15T11:42:32;99837.59;;;18.73;39.67
78123;BME280;67376;44.802;10.332;2023-04-15T11:45:12;99834.06;;;18.72;39.34
78123;BME280;67376;44.802;10.332;2023-04-15T11:47:39;99829.16;;;18.69;39.81
78123;BME280;67376;44.802;10.332;2023-04-15T11:52:41;99836.78;;;18.72;40.46
78123;BME280;67376;44.802;10.332;2023-04-15T11:55:16;99834.41;;;18.76;40.54
78123;BME280;67376;44.802;10.332;2023-04-15T11:57:41;99838.16;;;18.75;40.05
78123;BME280;67376;44.802;10.332;2023-04-15T12:00:07;99834.63;;;18.74;39.75
78123;BME280;67376;44.802;10.332;2023-04-15T12:02:35;99833.81;;;18.74;40.44
78123;BME280;67376;44.802;10.332;2023-04-15T12:05:05;99841.69;;;18.75;40.71
78123;BME280;67376;44.802;10.332;2023-04-15T12:07:31;99834.41;;;18.76;40.71
78123;BME280;67376;44.802;10.332;2023-04-15T12:09:57;99844.72;;;18.79;40.34
78123;BME280;67376;44.802;10.332;2023-04-15T12:12:26;99835.78;;;18.78;40.68
78123;BME280;67376;44.802;10.332;2023-04-15T12:14:52;99832.50;;;18.76;40.99
78123;BME280;67376;44.802;10.332;2023-04-15T12:17:18;99832.25;;;18.78;40.81
78123;BME280;67376;44.802;10.332;2023-04-15T12:19:43;99818.16;;;18.76;40.57
78123;BME280;67376;44.802;10.332;2023-04-15T12:22:16;99827.09;;;18.76;40.83
78123;BME280;67376;44.802;10.332;2023-04-15T12:24:42;99822.75;;;18.75;40.87
78123;BME280;67376;44.802;10.332;2023-04-15T12:27:11;99825.72;;;18.74;40.06
78123;BME280;67376;44.802;10.332;2023-04-15T12:29:38;99826.28;;;18.76;40.72
78123;BME280;67376;44.802;10.332;2023-04-15T12:34:34;99826.03;;;18.77;40.61
78123;BME280;67376;44.802;10.332;2023-04-15T12:37:02;99829.22;;;18.74;40.00
78123;BME280;67376;44.802;10.332;2023-04-15T12:39:29;99828.16;;;18.75;40.72
78123;BME280;67376;44.802;10.332;2023-04-15T12:41:55;99829.22;;;18.74;40.00
78123;BME280;67376;44.802;10.332;2023-04-15T12:44:23;99834.63;;;18.74;39.78
78123;BME280;67376;44.802;10.332;2023-04-15T12:46:50;99825.13;;;18.72;39.60
78123;BME280;67376;44.802;10.332;2023-04-15T12:49:16;99824.66;;;18.75;39.60
78123;BME280;67376;44.802;10.332;2023-04-15T12:51:44;99833.56;;;18.75;39.46
78123;BME280;67376;44.802;10.332;2023-04-15T12:54:10;99823.81;;;18.74;39.66
78123;BME280;67376;44.802;10.332;2023-04-15T12:56:36;99826.84;;;18.78;39.40
78123;BME280;67376;44.802;10.332;2023-04-15T12:59:01;99824.66;;;18.75;39.74
78123;BME280;67376;44.802;10.332;2023-04-15T13:01:27;99823.75;;;18.69;39.13
78123;BME280;67376;44.802;10.332;2023-04-15T13:03:52;99819.06;;;18.65;38.56
78123;BME280;67376;44.802;10.332;2023-04-15T13:06:17;99830.13;;;18.63;39.19
78123;BME280;67376;44.802;10.332;2023-04-15T13:08:43;99827.69;;;18.62;38.40
78123;BME280;67376;44.802;10.332;2023-04-15T13:11:09;99826.03;;;18.61;37.25
78123;BME280;67376;44.802;10.332;2023-04-15T13:13:34;99824.38;;;18.60;37.98
78123;BME280;67376;44.802;10.332;2023-04-15T13:16:00;99831.19;;;18.62;37.59